Time;durP1;ratioP1;P1;durP2;ratioP2;P2;SDS_P1;SDS_P2;PMS_P1;PMS_P2;Temp;Humidity;BMP_temperature;BMP_pressure;BME280_temperature;BME280_humidity;BME280_pressure;Samples;Min_cycle;Max_cycle;Signal;HPM_P1;HPM_P2
2023/06/05 00:00:32;;;;;;;10.03;3.70;;;;;;;13.20;74.65;100763.34;1489273;87;21307;-91
2023/06/05 00:02:58;;;;;;;8.70;3.53;;;;;;;13.12;75.08;100761.95;1492242;87;21472;-93
2023/06/05 00:05:26;;;;;;;14.43;3.73;;;;;;;13.04;74.60;100760.92;1495090;87;21337;-91
2023/06/05 00:07:52;;;;;;;7.57;3.43;;;;;;;13.01;74.68;100761.23;1493813;87;21381;-92
2023/06/05 00:10:19;;;;;;;5.60;3.23;;;;;;;13.02;75.01;100762.89;1501139;87;21419;-92
2023/06/05 00:12:45;;;;;;;6.57;4.13;;;;;;;13.06;75.60;100766.92;1497945;87;21537;-90
2023/06/05 00:15:12;;;;;;;14.10;3.77;;;;;;;13.12;75.58;100763.27;1495968;87;21824;-91
2023/06/05 00:17:38;;;;;;;17.30;4.27;;;;;;;13.17;75.52;100763.65;1490006;86;22232;-93
2023/06/05 00:20:05;;;;;;;13.90;4.27;;;;;;;13.21;75.81;100771.16;1497413;86;21394;-94
2023/06/05 00:22:33;;;;;;;11.60;4.17;;;;;;;13.22;75.20;100763.52;1492673;87;21278;-91
2023/06/05 00:25:00;;;;;;;10.47;3.73;;;;;;;13.23;75.04;100757.70;1480454;87;21373;-93
2023/06/05 00:27:26;;;;;;;12.50;4.37;;;;;;;13.20;74.95;100756.69;1474078;87;21470;-87
2023/06/05 00:29:52;;;;;;;8.57;3.50;;;;;;;13.18;75.41;100757.36;1492163;86;21545;-88
2023/06/05 00:32:18;;;;;;;12.03;4.23;;;;;;;13.19;75.57;100759.84;1490602;87;22803;-89
2023/06/05 00:34:46;;;;;;;10.57;3.37;;;;;;;13.20;75.63;100758.02;1493432;87;21350;-91
2023/06/05 00:37:15;;;;;;;8.00;3.33;;;;;;;13.20;75.96;100761.50;1477268;87;22401;-89
2023/06/05 00:39:41;;;;;;;9.73;3.73;;;;;;;13.20;76.15;100760.17;1499729;87;22313;-90
2023/06/05 00:42:08;;;;;;;10.40;3.07;;;;;;;13.17;75.88;100758.33;1489774;86;21396;-91
2023/06/05 00:44:35;;;;;;;6.33;3.40;;;;;;;13.16;75.48;100758.00;1491005;87;22347;-89
2023/06/05 00:47:03;;;;;;;6.37;3.17;;;;;;;13.14;75.72;100755.98;1493811;87;21567;-90
2023/06/05 00:49:30;;;;;;;12.97;3.23;;;;;;;13.08;75.62;100752.96;1497734;87;21359;-90
2023/06/05 00:51:57;;;;;;;9.50;3.53;;;;;;;13.04;75.57;100754.27;1498574;87;21432;-89
2023/06/05 00:54:24;;;;;;;5.93;2.90;;;;;;;12.96;75.29;100750.23;1486032;87;21411;-92
2023/06/05 00:56:52;;;;;;;6.47;3.70;;;;;;;12.91;75.30;100750.34;1481391;87;22482;-92
2023/06/05 00:59:19;;;;;;;6.97;3.37;;;;;;;12.84;75.36;100758.11;1492885;87;21359;-88
2023/06/05 01:01:47;;;;;;;5.97;2.63;;;;;;;12.77;75.83;100763.19;1488998;87;22454;-89
2023/06/05 01:04:14;;;;;;;9.10;3.03;;;;;;;12.72;75.42;100760.18;1489317;86;21352;-90
2023/06/05 01:06:40;;;;;;;11.67;4.10;;;;;;;12.74;74.98;100771.96;1493598;87;21503;-89
2023/06/05 01:09:10;;;;;;;6.93;3.00;;;;;;;12.76;75.08;100764.69;1494699;87;21389;-93
2023/06/05 01:12:01;;;;;;;5.87;3.03;;;;;;;12.80;75.65;100767.36;1489282;87;21271;-87
2023/06/05 01:14:32;;;;;;;12.20;3.57;;;;;;;12.81;75.37;100763.73;1495850;87;21493;-92
2023/06/05 01:17:02;;;;;;;11.83;3.67;;;;;;;12.80;74.59;100762.91;1494935;87;21380;-89
2023/06/05 01:19:30;;;;;;;7.75;3.30;;;;;;;12.81;74.78;100766.39;1484732;87;21593;-88
2023/06/05 01:22:00;;;;;;;4.30;2.60;;;;;;;12.81;74.64;100758.42;1492234;87;22202;-91
2023/06/05 01:24:27;;;;;;;6.77;3.60;;;;;;;12.81;74.53;100767.72;1497783;87;22393;-90
2023/06/05 01:27:37;;;;;;;6.23;3.03;;;;;;;12.80;74.29;100763.38;1481138;87;21352;-92
2023/06/05 01:30:19;;;;;;;5.85;2.87;;;;;;;12.82;74.76;100764.06;1485715;87;21499;-83
2023/06/05 01:32:56;;;;;;;5.27;2.87;;;;;;;12.79;74.41;100762.55;1491485;87;21916;-90
2023/06/05 01:35:32;;;;;;;11.33;3.70;;;;;;;12.78;74.00;100753.42;1490937;87;21440;-89
2023/06/05 01:38:02;;;;;;;7.20;3.53;;;;;;;12.76;74.11;100758.05;1495877;87;21427;-90
2023/06/05 01:40:31;;;;;;;6.70;3.20;;;;;;;12.72;73.84;100756.20;1487977;86;21499;-91
2023/06/05 01:43:00;;;;;;;9.03;3.37;;;;;;;12.70;74.20;100753.34;1491259;87;21241;-88
2023/06/05 01:45:27;;;;;;;7.37;3.50;;;;;;;12.64;74.27;100751.64;1495293;87;21388;-90
2023/06/05 01:47:54;;;;;;;5.17;3.10;;;;;;;12.60;74.18;100750.30;1496673;87;21404;-91
2023/06/05 01:50:21;;;;;;;5.63;3.03;;;;;;;12.58;73.87;100748.27;1478409;87;21351;-91
2023/06/05 01:52:47;;;;;;;8.00;3.50;;;;;;;12.58;73.51;100749.60;1501862;86;21411;-92
2023/06/05 01:55:20;;;;;;;7.67;2.60;;;;;;;12.60;73.49;100752.09;1493164;87;22238;-87
2023/06/05 01:57:46;;;;;;;7.60;3.67;;;;;;;12.62;73.18;100750.95;1489821;87;21366;-89
2023/06/05 02:00:15;;;;;;;5.73;3.40;;;;;;;12.65;73.06;100761.27;1497881;87;21336;-88
2023/06/05 02:02:46;;;;;;;5.07;2.80;;;;;;;12.68;73.43;100757.97;1493491;87;22304;-89
2023/06/05 02:05:14;;;;;;;4.47;2.63;;;;;;;12.68;73.49;100758.80;1497935;87;21374;-89
2023/06/05 02:07:49;;;;;;;4.47;2.93;;;;;;;12.68;72.96;100756.14;1491368;86;21440;-90
2023/06/05 02:10:18;;;;;;;12.40;3.30;;;;;;;12.67;72.83;100757.14;1473448;87;21374;-88
2023/06/05 02:12:44;;;;;;;6.50;3.37;;;;;;;12.64;72.45;100754.30;1490377;86;21389;-91
2023/06/05 02:15:12;;;;;;;4.60;2.90;;;;;;;12.61;72.24;100757.26;1484981;87;21565;-92
2023/06/05 02:17:44;;;;;;;8.90;3.10;;;;;;;12.59;71.79;100752.59;1495707;87;22813;-90
2023/06/05 02:20:10;;;;;;;8.60;3.17;;;;;;;12.57;71.63;100753.25;1487710;87;22438;-93
2023/06/05 02:22:40;;;;;;;5.43;2.87;;;;;;;12.55;71.50;100749.91;1491342;87;22202;-87
2023/06/05 02:25:07;;;;;;;5.83;2.80;;;;;;;12.58;71.29;100742.13;1492245;86;21396;-90
2023/06/05 02:27:34;;;;;;;7.97;2.77;;;;;;;12.62;71.10;100746.97;1490840;87;21576;-88
2023/06/05 02:30:00;;;;;;;3.90;2.63;;;;;;;12.67;70.79;100748.34;1492441;86;21575;-86
2023/06/05 02:32:28;;;;;;;5.10;2.50;;;;;;;12.69;70.59;100741.90;1489704;87;21425;-90
2023/06/05 02:34:56;;;;;;;5.70;3.43;;;;;;;12.70;70.33;100742.23;1493156;87;21652;-89
2023/06/05 02:37:26;;;;;;;6.13;2.83;;;;;;;12.72;70.18;100741.59;1472488;87;21507;-89
2023/06/05 02:39:53;;;;;;;4.80;2.70;;;;;;;12.72;70.33;100738.94;1493803;87;21533;-90
2023/06/05 02:42:19;;;;;;;5.87;3.20;;;;;;;12.74;70.77;100741.42;1489741;87;21433;-89
2023/06/05 02:44:46;;;;;;;3.77;2.87;;;;;;;12.76;70.82;100748.25;1493365;86;21538;-85
2023/06/05 02:47:13;;;;;;;4.20;3.27;;;;;;;12.77;70.78;100749.08;1489956;86;21278;-91
2023/06/05 02:49:40;;;;;;;7.70;3.00;;;;;;;12.78;70.75;100745.45;1495374;87;21294;-90
2023/06/05 02:52:06;;;;;;;5.43;2.77;;;;;;;12.78;70.81;100749.44;1492830;87;22319;-91
2023/06/05 02:54:32;;;;;;;5.67;3.50;;;;;;;12.79;70.97;100751.09;1493865;87;21518;-90
2023/06/05 02:57:00;;;;;;;13.90;3.20;;;;;;;12.82;70.70;100749.45;1494635;86;21322;-87
2023/06/05 02:59:27;;;;;;;5.80;3.37;;;;;;;12.82;70.44;100752.11;1489925;87;21278;-89
2023/06/05 03:01:54;;;;;;;7.07;3.13;;;;;;;12.80;70.39;100749.63;1490905;87;22504;-88
2023/06/05 03:04:21;;;;;;;6.73;3.03;;;;;;;12.81;70.61;100753.94;1496168;87;21329;-90
2023/06/05 03:06:50;;;;;;;8.73;4.40;;;;;;;12.81;71.06;100747.80;1496163;87;22187;-89
2023/06/05 03:09:17;;;;;;;9.47;3.33;;;;;;;12.79;70.86;100748.44;1477148;87;22297;-90
2023/06/05 03:11:44;;;;;;;5.13;2.70;;;;;;;12.77;71.79;100755.22;1495608;87;21831;-92
2023/06/05 03:14:11;;;;;;;4.07;2.80;;;;;;;12.75;71.73;100753.73;1495674;87;22297;-90
2023/06/05 03:16:41;;;;;;;6.07;3.30;;;;;;;12.72;71.40;100758.02;1495451;87;21307;-90
2023/06/05 03:19:05;;;;;;;7.17;2.63;;;;;;;12.69;71.44;100752.98;1489828;86;21424;-88
2023/06/05 03:21:31;;;;;;;8.13;3.07;;;;;;;12.68;71.37;100756.14;1492843;87;21425;-90
2023/06/05 03:23:57;;;;;;;8.23;3.43;;;;;;;12.68;71.20;100748.17;1501044;87;22341;-89
2023/06/05 03:26:25;;;;;;;5.37;3.10;;;;;;;12.71;70.73;100751.02;1492163;87;21381;-88
2023/06/05 03:28:51;;;;;;;5.27;2.77;;;;;;;12.73;71.07;100751.71;1491420;87;22760;-88
2023/06/05 03:31:22;;;;;;;6.43;3.70;;;;;;;12.76;71.02;100751.41;1491522;87;22483;-92
2023/06/05 03:33:48;;;;;;;6.47;2.77;;;;;;;12.76;70.56;100752.73;1488928;87;21359;-93
2023/06/05 03:36:18;;;;;;;7.87;3.60;;;;;;;12.77;70.63;100749.08;1477433;87;21574;-92
2023/06/05 03:38:45;;;;;;;6.03;3.40;;;;;;;12.78;70.90;100760.06;1495645;87;21352;-92
2023/06/05 03:41:12;;;;;;;6.80;2.87;;;;;;;12.75;71.07;100761.70;1491884;86;21205;-92
2023/06/05 03:43:38;;;;;;;7.60;2.90;;;;;;;12.71;71.16;100756.34;1486528;87;22460;-91
2023/06/05 03:46:04;;;;;;;5.83;4.00;;;;;;;12.68;71.57;100757.97;1488778;87;21388;-92
2023/06/05 03:48:30;;;;;;;5.03;3.30;;;;;;;12.67;71.89;100758.97;1493245;86;21411;-92
2023/06/05 03:50:57;;;;;;;7.93;2.93;;;;;;;12.69;72.07;100755.64;1490863;86;22424;-88
2023/06/05 03:53:24;;;;;;;5.17;3.43;;;;;;;12.75;72.11;100759.05;1493521;87;21315;-92
2023/06/05 03:55:52;;;;;;;5.63;3.50;;;;;;;12.82;72.15;100758.75;1479241;87;21256;-85
2023/06/05 03:58:20;;;;;;;6.03;2.60;;;;;;;12.87;71.92;100759.13;1480093;87;23206;-90
2023/06/05 04:00:51;;;;;;;6.47;3.20;;;;;;;12.93;71.55;100757.18;1488709;87;22393;-89
2023/06/05 04:03:19;;;;;;;6.83;2.90;;;;;;;13.01;71.33;100754.59;1495858;87;21366;-88
2023/06/05 04:05:45;;;;;;;6.57;2.87;;;;;;;13.06;71.17;100754.96;1494910;86;21532;-90
2023/06/05 04:08:11;;;;;;;9.07;3.43;;;;;;;13.12;71.02;100756.63;1493122;86;22401;-88
2023/06/05 04:10:38;;;;;;;7.77;3.20;;;;;;;13.18;70.86;100757.36;1486973;87;21352;-89
2023/06/05 04:13:04;;;;;;;7.43;4.27;;;;;;;13.23;70.73;100761.69;1500008;87;22209;-87
2023/06/05 04:15:30;;;;;;;11.77;3.03;;;;;;;13.27;71.23;100761.27;1494992;87;21372;-89
2023/06/05 04:17:57;;;;;;;4.43;2.93;;;;;;;13.33;70.82;100757.15;1495575;87;21954;-86
2023/06/05 04:20:25;;;;;;;10.87;3.00;;;;;;;13.40;71.25;100758.17;1500618;87;22364;-89
2023/06/05 04:22:51;;;;;;;10.37;3.40;;;;;;;13.50;71.10;100758.90;1500909;87;21447;-92
2023/06/05 04:25:17;;;;;;;7.53;3.63;;;;;;;13.64;70.40;100765.95;1495042;87;22254;-91
2023/06/05 04:27:48;;;;;;;6.33;3.37;;;;;;;13.77;70.22;100761.01;1492744;87;21426;-90
2023/06/05 04:30:14;;;;;;;6.70;2.72;;;;;;;13.86;69.98;100765.36;1495273;87;21388;-86
2023/06/05 04:32:41;;;;;;;7.57;3.40;;;;;;;13.97;69.43;100763.73;1479958;87;21381;-92
2023/06/05 04:35:11;;;;;;;5.30;3.73;;;;;;;14.10;69.45;100766.46;1496732;87;21358;-90
2023/06/05 04:37:39;;;;;;;7.10;2.72;;;;;;;14.21;68.88;100768.78;1496223;87;21418;-92
2023/06/05 04:40:10;;;;;;;5.67;3.07;;;;;;;14.31;68.73;100766.83;1490804;87;21323;-89
2023/06/05 04:42:36;;;;;;;4.15;3.30;;;;;;;14.40;68.36;100768.50;1489136;86;21508;-91
2023/06/05 04:45:07;;;;;;;5.40;3.53;;;;;;;14.51;68.01;100758.54;1492746;86;21345;-89
2023/06/05 04:47:34;;;;;;;7.97;3.20;;;;;;;14.61;67.73;100764.55;1497963;86;21383;-92
2023/06/05 04:50:03;;;;;;;6.07;3.70;;;;;;;14.70;67.28;100766.22;1492984;87;21382;-89
2023/06/05 04:52:39;;;;;;;12.50;3.97;;;;;;;14.77;67.16;100760.58;1494369;87;21389;-95
2023/06/05 04:55:06;;;;;;;9.83;4.17;;;;;;;14.84;66.72;100758.89;1496363;87;22276;-91
2023/06/05 04:57:32;;;;;;;4.73;3.50;;;;;;;14.95;66.77;100756.90;1495880;87;21449;-91
2023/06/05 04:59:58;;;;;;;10.97;3.80;;;;;;;15.06;67.01;100752.05;1494983;87;21419;-93
2023/06/05 05:02:26;;;;;;;8.30;4.03;;;;;;;15.17;67.23;100754.88;1487594;87;22285;-88
2023/06/05 05:04:52;;;;;;;6.30;4.13;;;;;;;15.27;66.80;100758.67;1491649;87;21358;-86
2023/06/05 05:07:18;;;;;;;4.53;3.63;;;;;;;15.41;66.79;100765.15;1487661;86;22275;-91
2023/06/05 05:09:46;;;;;;;5.53;3.67;;;;;;;15.52;66.26;100769.61;1502924;87;21389;-89
2023/06/05 05:12:14;;;;;;;8.77;3.37;;;;;;;15.67;66.21;100771.06;1481407;86;21373;-81
2023/06/05 05:14:40;;;;;;;7.63;3.60;;;;;;;15.75;65.47;100769.73;1495412;87;21396;-82
2023/06/05 05:17:06;;;;;;;6.53;4.20;;;;;;;15.83;64.98;100769.38;1497886;87;21395;-80
2023/06/05 05:19:32;;;;;;;6.27;3.90;;;;;;;15.89;64.96;100770.02;1496032;86;21226;-80
2023/06/05 05:21:59;;;;;;;5.53;3.57;;;;;;;16.03;65.07;100771.95;1500419;87;21322;-79
2023/06/05 05:24:25;;;;;;;10.70;4.20;;;;;;;16.19;65.08;100768.34;1500670;87;22363;-79
2023/06/05 05:26:52;;;;;;;7.77;3.90;;;;;;;16.36;65.01;100772.58;1494841;87;21352;-82
2023/06/05 05:29:18;;;;;;;11.47;4.50;;;;;;;16.51;64.62;100767.30;1498579;87;21343;-82
2023/06/05 05:31:45;;;;;;;9.33;3.53;;;;;;;16.69;64.47;100772.36;1493857;87;21542;-82
2023/06/05 05:34:11;;;;;;;7.77;4.10;;;;;;;16.84;63.93;100765.24;1504874;87;21190;-87
2023/06/05 05:36:37;;;;;;;8.73;3.97;;;;;;;16.93;62.66;100757.98;1504331;87;21515;-83
2023/06/05 05:39:04;;;;;;;9.53;4.63;;;;;;;17.05;63.04;100755.19;1488558;87;22359;-86
2023/06/05 05:41:31;;;;;;;8.63;4.30;;;;;;;17.19;63.26;100752.72;1481619;86;21293;-85
2023/06/05 05:43:57;;;;;;;12.40;4.43;;;;;;;17.26;62.72;100757.17;1496942;87;22333;-86
2023/06/05 05:46:23;;;;;;;6.27;4.00;;;;;;;17.38;62.56;100758.87;1493941;87;21293;-86
2023/06/05 05:48:49;;;;;;;9.80;4.27;;;;;;;17.55;62.65;100768.38;1492525;87;21566;-86
2023/06/05 05:51:15;;;;;;;9.37;4.13;;;;;;;17.77;62.85;100764.44;1490561;87;21307;-86
2023/06/05 05:53:41;;;;;;;6.33;3.90;;;;;;;17.96;62.53;100759.88;1492575;87;21292;-87
2023/06/05 05:56:07;;;;;;;9.73;4.00;;;;;;;18.12;61.81;100765.50;1494097;87;22342;-80
2023/06/05 05:58:34;;;;;;;11.03;4.57;;;;;;;18.25;61.20;100762.16;1486734;87;21449;-76
2023/06/05 06:01:00;;;;;;;10.07;4.10;;;;;;;18.35;60.98;100755.95;1484601;86;21359;-76
2023/06/05 06:03:26;;;;;;;8.97;4.27;;;;;;;18.55;61.09;100757.49;1496525;87;22268;-76
2023/06/05 06:05:53;;;;;;;5.50;3.87;;;;;;;18.73;60.30;100755.72;1495026;86;21956;-76
2023/06/05 06:08:20;;;;;;;7.67;4.37;;;;;;;18.85;58.03;100759.56;1489595;86;21440;-76
2023/06/05 06:10:51;;;;;;;6.27;3.87;;;;;;;18.98;57.71;100761.50;1475365;87;21985;-76
2023/06/05 06:13:17;;;;;;;6.75;4.40;;;;;;;19.03;57.25;100760.42;1411542;87;21581;-76
2023/06/05 06:15:43;;;;;;;11.30;4.57;;;;;;;19.07;56.15;100758.17;1421335;87;21330;-76
2023/06/05 06:18:09;;;;;;;9.00;4.50;;;;;;;19.14;57.24;100755.86;1415488;87;21234;-76
2023/06/05 06:20:36;;;;;;;9.57;3.90;;;;;;;19.23;56.10;100756.53;1421480;87;21431;-75
2023/06/05 06:23:04;;;;;;;11.37;4.13;;;;;;;19.32;56.59;100751.33;1411618;87;21300;-76
2023/06/05 06:25:31;;;;;;;7.90;4.13;;;;;;;19.43;56.79;100753.16;1476005;87;22386;-76
2023/06/05 06:28:00;;;;;;;5.70;3.93;;;;;;;19.52;54.42;100749.27;1495324;87;21491;-75
2023/06/05 06:30:31;;;;;;;8.03;4.22;;;;;;;19.63;55.80;100754.08;1493257;86;21491;-76
2023/06/05 06:32:59;;;;;;;7.87;3.90;;;;;;;19.80;56.02;100748.72;1492029;87;21447;-75
2023/06/05 06:35:27;;;;;;;7.47;4.55;;;;;;;19.99;55.95;100748.46;1580094;87;21264;-75
2023/06/05 06:37:54;;;;;;;20.27;4.75;;;;;;;20.14;53.25;100748.33;1448385;87;21323;-75
2023/06/05 06:40:24;;;;;;;10.98;4.35;;;;;;;20.24;53.73;100743.38;1414448;87;21227;-77
2023/06/05 06:42:51;;;;;;;8.75;4.30;;;;;;;20.37;54.22;100737.70;1471923;87;21432;-77
2023/06/05 06:45:17;;;;;;;14.83;4.10;;;;;;;20.56;53.83;100742.31;1494473;87;21307;-77
2023/06/05 06:47:44;;;;;;;8.13;4.67;;;;;;;20.76;53.97;100738.81;1487384;87;22356;-77
2023/06/05 06:50:10;;;;;;;7.90;4.72;;;;;;;20.97;53.61;100734.55;1489983;87;22253;-76
2023/06/05 06:52:36;;;;;;;11.38;4.28;;;;;;;21.18;53.34;100734.85;1496688;87;21425;-76
2023/06/05 06:55:03;;;;;;;7.08;4.28;;;;;;;21.33;51.45;100731.39;1472327;87;22000;-77
2023/06/05 06:57:30;;;;;;;12.68;3.83;;;;;;;21.39;50.24;100729.76;1490468;87;22858;-77
2023/06/05 06:59:56;;;;;;;7.65;4.22;;;;;;;21.49;49.98;100729.30;1496979;87;21811;-78
2023/06/05 07:02:25;;;;;;;7.00;4.00;;;;;;;21.65;50.32;100729.37;1488419;87;21292;-77
2023/06/05 07:04:53;;;;;;;9.63;4.30;;;;;;;21.80;50.23;100729.39;1497370;87;22424;-77
2023/06/05 07:07:21;;;;;;;6.60;3.80;;;;;;;21.92;49.09;100728.19;1491156;87;21433;-78
2023/06/05 07:09:53;;;;;;;5.17;3.52;;;;;;;22.05;48.88;100734.87;1579486;87;21300;-77
2023/06/05 07:12:22;;;;;;;7.95;4.22;;;;;;;22.15;47.00;100738.95;1580095;86;21154;-78
2023/06/05 07:14:48;;;;;;;7.97;4.08;;;;;;;22.23;48.23;100738.73;1418491;87;21434;-78
2023/06/05 07:17:14;;;;;;;10.55;4.28;;;;;;;22.34;48.14;100732.66;1576453;87;22091;-78
2023/06/05 07:19:40;;;;;;;6.67;4.17;;;;;;;22.51;48.13;100733.78;1415880;87;21271;-77
2023/06/05 07:22:07;;;;;;;10.95;4.00;;;;;;;22.64;47.27;100730.66;1421642;87;21398;-78
2023/06/05 07:24:35;;;;;;;11.57;3.67;;;;;;;22.69;46.37;100734.88;1415659;86;22098;-78
2023/06/05 07:27:03;;;;;;;6.90;4.20;;;;;;;22.75;44.62;100711.06;1412842;87;21323;-79
2023/06/05 07:29:30;;;;;;;5.92;3.65;;;;;;;22.76;44.56;100712.73;1422658;87;22232;-78
2023/06/05 07:31:58;;;;;;;7.92;4.08;;;;;;;22.79;43.21;100732.53;1482839;87;21439;-77
2023/06/05 07:34:26;;;;;;;4.95;3.95;;;;;;;22.84;44.92;100725.92;1497242;87;22469;-78
2023/06/05 07:36:55;;;;;;;7.97;4.05;;;;;;;22.97;45.56;100729.89;1490479;87;21388;-86
2023/06/05 07:39:22;;;;;;;12.53;4.33;;;;;;;22.98;44.51;100732.89;1493563;87;21344;-89
2023/06/05 07:41:49;;;;;;;11.12;5.15;;;;;;;23.08;44.67;100731.58;1494071;87;21358;-85
2023/06/05 07:44:18;;;;;;;11.38;5.05;;;;;;;23.18;45.09;100735.92;1497105;87;21330;-84
2023/06/05 07:46:46;;;;;;;7.10;3.95;;;;;;;23.33;44.79;100736.91;1491854;87;22336;-86
2023/06/05 07:49:12;;;;;;;6.40;4.15;;;;;;;23.43;43.99;100727.23;1413613;87;21263;-87
2023/06/05 07:51:39;;;;;;;9.60;4.03;;;;;;;23.58;44.19;100727.39;1415226;87;21293;-85
2023/06/05 07:54:10;;;;;;;6.10;4.37;;;;;;;23.70;43.97;100725.59;1421929;87;21255;-83
2023/06/05 07:56:38;;;;;;;8.30;4.10;;;;;;;23.89;43.97;100728.29;1488208;86;21249;-88
2023/06/05 07:59:07;;;;;;;12.28;4.58;;;;;;;24.03;43.04;100727.05;1495085;86;21329;-86
2023/06/05 08:01:38;;;;;;;8.45;3.92;;;;;;;24.10;43.06;100726.42;1491815;87;21469;-87
2023/06/05 08:04:07;;;;;;;9.20;4.75;;;;;;;24.27;43.22;100732.01;1493686;87;21418;-86
2023/06/05 08:06:37;;;;;;;8.00;4.72;;;;;;;24.43;43.10;100734.63;1447784;86;22313;-88
2023/06/05 08:09:02;;;;;;;5.40;4.22;;;;;;;24.60;42.67;100734.25;1489392;87;22488;-89
2023/06/05 08:11:28;;;;;;;7.85;4.25;;;;;;;24.70;41.65;100734.48;1495562;87;21388;-86
2023/06/05 08:13:55;;;;;;;8.43;4.17;;;;;;;24.80;42.24;100730.36;1494827;86;21403;-88
2023/06/05 08:16:22;;;;;;;13.38;4.22;;;;;;;24.99;42.25;100723.25;1491509;86;21507;-88
2023/06/05 08:18:48;;;;;;;8.28;4.83;;;;;;;25.20;41.45;100725.94;1491763;87;21389;-88
2023/06/05 08:21:15;;;;;;;9.08;3.60;;;;;;;25.31;40.90;100730.20;1480536;87;21358;-88
2023/06/05 08:23:41;;;;;;;9.95;4.10;;;;;;;25.33;40.20;100725.39;1493647;87;21344;-88
2023/06/05 08:26:10;;;;;;;9.48;4.75;;;;;;;25.31;38.68;100724.79;1492669;87;21419;-88
2023/06/05 08:28:37;;;;;;;11.33;4.37;;;;;;;25.35;39.67;100723.27;1493009;87;21521;-89
2023/06/05 08:31:05;;;;;;;5.60;3.77;;;;;;;25.42;40.10;100721.23;1493040;87;21461;-85
2023/06/05 08:33:34;;;;;;;5.37;3.77;;;;;;;25.56;39.82;100722.63;1491518;87;21476;-88
2023/06/05 08:36:01;;;;;;;7.95;4.40;;;;;;;25.64;39.27;100721.43;1492796;87;22400;-88
2023/06/05 08:38:30;;;;;;;8.58;3.80;;;;;;;25.66;37.94;100722.84;1494385;87;21503;-89
2023/06/05 08:41:05;;;;;;;6.92;4.03;;;;;;;25.71;38.53;100719.92;1495646;87;21484;-93
2023/06/05 08:43:39;;;;;;;6.70;4.00;;;;;;;25.84;38.37;100725.11;1488836;87;21569;-94
2023/06/05 08:46:06;;;;;;;4.53;3.85;;;;;;;25.92;37.35;100723.34;1488585;87;21396;-91
2023/06/05 08:48:35;;;;;;;9.65;3.55;;;;;;;25.96;37.79;100721.00;1408270;87;22071;-94
2023/06/05 08:51:01;;;;;;;10.63;3.63;;;;;;;26.08;37.42;100718.51;1459118;87;21705;-94
2023/06/05 08:53:34;;;;;;;4.17;3.77;;;;;;;26.20;36.94;100724.41;1495708;87;21352;-92
2023/06/05 08:56:08;;;;;;;6.15;3.83;;;;;;;26.31;37.57;100720.81;1504890;87;21337;-92
2023/06/05 08:58:43;;;;;;;7.67;3.70;;;;;;;26.44;37.00;100729.16;1493125;87;21314;-93
2023/06/05 09:01:12;;;;;;;5.70;3.65;;;;;;;26.60;36.54;100720.78;1490852;87;21358;-92
2023/06/05 09:03:44;;;;;;;5.05;3.02;;;;;;;26.71;36.13;100721.23;1490407;87;21594;-91
2023/06/05 09:06:04;;;;;;;7.42;3.12;;;;;;;26.86;36.26;100721.46;1486502;87;22290;-90
2023/06/05 09:08:33;;;;;;;3.42;2.60;;;;;;;26.84;32.62;100715.98;1489887;87;21432;-89
2023/06/05 09:14:41;;;;;;;4.95;3.60;;;;;;;27.04;35.28;100708.14;1393762;88;22209;-93
2023/06/05 09:17:24;;;;;;;13.45;3.72;;;;;;;27.29;34.56;100704.98;1419992;90;21612;-91
2023/06/05 09:20:15;;;;;;;6.50;3.50;;;;;;;27.47;34.61;100704.39;1432465;91;21546;-93
2023/06/05 09:22:40;;;;;;;6.75;3.62;;;;;;;27.61;34.03;100699.66;1409149;93;21515;-91
2023/06/05 09:25:23;;;;;;;10.23;3.58;;;;;;;27.71;32.97;100697.63;1363261;94;21499;-90
2023/06/05 09:28:10;;;;;;;6.10;3.67;;;;;;;27.78;33.17;100691.43;1365371;95;22776;-90
2023/06/05 09:31:21;;;;;;;;;;;;;;;;;;;;;
2023/06/05 09:34:10;;;;;;;7.45;3.47;;;;;;;27.78;32.13;100691.43;1347247;96;21879;-91
2023/06/05 09:36:49;;;;;;;8.95;3.20;;;;;;;27.81;32.40;100690.12;1359319;95;21433;-92
2023/06/05 09:39:24;;;;;;;6.45;3.45;;;;;;;27.78;31.80;100683.27;1335879;95;21759;-94
2023/06/05 09:41:51;;;;;;;5.70;3.15;;;;;;;27.81;32.03;100685.51;1378407;93;22441;-90
2023/06/05 09:44:23;;;;;;;4.17;3.22;;;;;;;27.89;31.67;100685.05;1411483;93;21481;-93
2023/06/05 09:47:09;;;;;;;5.15;3.65;;;;;;;28.05;31.80;100682.48;1413842;93;21586;-96
2023/06/05 09:50:08;;;;;;;6.22;4.12;;;;;;;28.15;30.72;100679.86;1358811;93;21695;-94
2023/06/05 09:53:29;;;;;;;7.42;3.60;;;;;;;28.21;30.90;100680.73;1387157;93;21538;-93
2023/06/05 09:56:00;;;;;;;11.75;3.83;;;;;;;28.30;29.85;100679.98;1326937;97;21433;-93
2023/06/05 09:58:32;;;;;;;12.47;4.33;;;;;;;28.41;29.92;100672.73;1349175;97;21611;-94
2023/06/05 10:01:04;;;;;;;4.22;3.05;;;;;;;28.52;29.70;100670.95;1329106;97;21548;-92
2023/06/05 10:03:44;;;;;;;7.85;3.60;;;;;;;28.59;29.72;100676.98;1331391;98;21508;-89
2023/06/05 10:06:09;;;;;;;6.53;3.10;;;;;;;28.62;29.64;100677.81;1329521;98;21486;-92
2023/06/05 10:08:45;;;;;;;5.53;2.67;;;;;;;28.65;28.79;100673.20;1317382;98;21710;-90
2023/06/05 10:11:18;;;;;;;6.37;3.65;;;;;;;28.77;29.54;100671.64;1329846;98;21507;-81
2023/06/05 10:13:39;;;;;;;10.90;4.37;;;;;;;28.92;29.58;100672.30;1328037;98;21404;-93
2023/06/05 10:16:08;;;;;;;3.98;3.15;;;;;;;28.91;29.14;100678.27;1329519;97;21677;-94
2023/06/05 10:18:44;;;;;;;9.53;2.92;;;;;;;28.84;27.40;100678.24;1333745;97;22520;-92
2023/06/05 10:25:11;;;;;;;6.35;3.27;;;;;;;28.88;27.58;100669.81;1428643;97;21283;-92
2023/06/05 10:28:03;;;;;;;7.12;2.92;;;;;;;29.08;28.32;100668.59;1411254;97;21364;-91
2023/06/05 10:30:56;;;;;;;5.90;3.75;;;;;;;29.22;28.64;100667.56;1317776;99;21669;-91
2023/06/05 10:34:06;;;;;;;5.10;3.27;;;;;;;29.23;27.14;100670.05;1346567;97;21571;-92
2023/06/05 10:36:49;;;;;;;7.35;3.10;;;;;;;28.86;25.61;100665.16;1357850;96;21834;-89
2023/06/05 10:39:17;;;;;;;4.80;2.62;;;;;;;28.72;26.08;100667.00;1355761;97;21445;-91
2023/06/05 10:41:43;;;;;;;7.62;3.83;;;;;;;28.88;27.70;100665.72;1355044;97;21513;-91
2023/06/05 10:44:13;;;;;;;6.53;2.72;;;;;;;28.88;26.22;100663.81;1354027;97;21462;-92
2023/06/05 10:46:40;;;;;;;3.05;2.77;;;;;;;29.06;27.75;100665.84;1352942;95;21614;-91
2023/06/05 10:49:26;;;;;;;3.83;3.20;;;;;;;29.22;27.74;100658.84;1360517;97;21507;-90
2023/06/05 10:51:49;;;;;;;3.50;3.00;;;;;;;29.35;27.33;100663.55;1315850;99;21832;-94
2023/06/05 10:54:29;;;;;;;4.17;2.90;;;;;;;29.38;27.08;100660.28;1314959;100;21556;-93
2023/06/05 10:57:10;;;;;;;4.95;3.08;;;;;;;29.36;26.83;100662.45;1279028;101;21587;-92
2023/06/05 10:59:42;;;;;;;4.12;3.33;;;;;;;29.28;26.03;100661.59;1225067;101;22280;-91
2023/06/05 11:02:19;;;;;;;6.80;3.08;;;;;;;29.21;26.84;100661.30;1291297;103;21640;-91
2023/06/05 11:04:51;;;;;;;9.23;2.80;;;;;;;29.21;27.09;100661.84;1284188;102;21459;-91
2023/06/05 11:07:21;;;;;;;5.67;3.02;;;;;;;29.40;27.77;100654.00;1237827;106;21542;-87
2023/06/05 11:10:07;;;;;;;3.42;2.60;;;;;;;29.58;27.36;100651.35;1240469;107;21536;-93
2023/06/05 11:12:44;;;;;;;5.58;2.85;;;;;;;29.56;27.26;100648.88;1235331;107;22562;-91
2023/06/05 11:15:15;;;;;;;7.12;3.00;;;;;;;29.65;26.18;100641.02;1231217;107;21803;-94
2023/06/05 11:17:44;;;;;;;3.95;2.58;;;;;;;29.75;26.75;100635.60;1215535;109;22519;-92
2023/06/05 11:20:34;;;;;;;42.15;6.20;;;;;;;29.86;27.39;100641.31;1233222;109;21451;-93
2023/06/05 11:23:07;;;;;;;;;;;;;;;29.97;26.95;100638.61;1275432;109;21545;-90
2023/06/05 11:25:40;;;;;;;73.12;12.60;;;;;;;30.08;26.15;100639.70;1217810;110;20441;-90
2023/06/05 11:28:13;;;;;;;7.33;3.20;;;;;;;29.98;25.87;100626.08;1223855;105;21488;-90
2023/06/05 11:34:45;;;;;;;19.27;3.92;;;;;;;30.02;27.30;100629.89;1265609;103;21580;-94
2023/06/05 11:37:22;;;;;;;17.32;3.25;;;;;;;29.72;25.83;100625.75;1292295;102;21610;-90
2023/06/05 11:39:48;;;;;;;7.37;3.40;;;;;;;29.73;26.39;100624.69;1263568;102;22326;-92
2023/06/05 11:42:25;;;;;;;52.43;10.10;;;;;;;29.82;26.37;100619.78;1260312;101;21526;-90
2023/06/05 11:44:55;;;;;;;20.08;8.48;;;;;;;29.84;26.30;100623.06;1326815;97;21527;-95
2023/06/05 11:47:35;;;;;;;16.87;5.00;;;;;;;29.76;25.42;100621.41;1355548;97;21496;-96